Decoded Metar for CYHD (DRYDEN in ON, CANADA) (IATA:YHD) | Meteo·Mobile Aviation Weather
aviador You're here:

CYHD Decoded Metar

DRYDEN in ON, CANADA
Report Time2018-09-18 20:00:00
UTC Time2018-09-18 20:59:57
Flight Rules vfr VFR
WindVRB at 02 kt
Visibility9999 m
Phenomena:N/A
Clouds:Broken 036 Hf
Expected CloudBase > 2,800 ft AGL from Temp-Dew spread
Ceiling3,600 ft
Temp14°C (ISA +2)
Dew Point07°C (63% RH)
AAT12.6°C
QNH1017 hPa
Density Alt1,562 ft
Elevation1,355 ft
Report Wrong Elevation
Raw Report
CYHD 182000Z AUTO VRB02KT 9SM BKN036 14/07 A3004 RMK SLP185
DENSITY ALT 1400FT=

Extra information for CYHD:More info

Metar Taf Metar & Taf Last 4 Metars F.Rules Stats Wind Profile Meteogram Temp Stats Airport Information Weather charts Add Link Nearby VenuesMetar ALERT Operation Metar Decoded Social comments